Time,TemperatureF,DewpointF,PressureIn,WindDirection,WindDirectionDegrees,WindSpeedMPH,WindSpeedGustMPH,Humidity,HourlyPrecipIn,Conditions,Clouds,dailyrainin,SoftwareType,DateUTC
2013-09-04 00:01:00,71.6,71.3,29.89,ESE,102,0.0,0.0,99,0.00,,---,0.67,VWS V14.01,2013-09-04 05:01:00,
2013-09-04 00:06:00,71.6,71.3,29.89,ESE,102,0.0,0.0,99,0.00,,---,0.00,VWS V14.01,2013-09-04 05:06:00,
2013-09-04 00:11:00,71.7,71.4,29.89,East,101,0.0,0.0,99,0.00,,---,0.00,VWS V14.01,2013-09-04 05:11:00,
2013-09-04 00:16:00,71.7,71.4,29.89,ESE,102,0.0,0.0,99,0.00,,---,0.00,VWS V14.01,2013-09-04 05:16:00,
2013-09-04 00:21:00,71.6,71.3,29.89,ESE,102,0.0,0.0,99,0.00,,---,0.00,VWS V14.01,2013-09-04 05:21:00,
2013-09-04 00:26:00,71.7,71.4,29.89,ESE,102,0.0,0.0,99,0.00,,---,0.00,VWS V14.01,2013-09-04 05:26:00,
2013-09-04 00:31:00,71.8,71.5,29.89,East,101,0.0,0.0,99,0.00,,---,0.00,VWS V14.01,2013-09-04 05:31:00,
2013-09-04 00:36:00,71.9,71.6,29.89,ESE,102,0.0,0.0,99,0.00,,---,0.00,VWS V14.01,2013-09-04 05:36:00,
2013-09-04 00:41:00,71.8,71.5,29.89,ESE,102,0.0,0.0,99,0.00,,---,0.00,VWS V14.01,2013-09-04 05:41:00,
2013-09-04 00:46:00,71.7,71.4,29.89,East,101,0.0,0.0,99,0.00,,---,0.00,VWS V14.01,2013-09-04 05:46:00,
2013-09-04 00:51:00,71.6,71.3,29.89,ESE,102,0.0,0.0,99,0.00,,---,0.00,VWS V14.01,2013-09-04 05:51:00,
2013-09-04 00:56:00,71.6,71.3,29.89,East,101,0.0,0.0,99,0.00,,---,0.00,VWS V14.01,2013-09-04 05:56:00,
2013-09-04 01:01:00,71.6,71.3,29.89,ESE,102,0.0,0.0,99,0.00,,---,0.00,VWS V14.01,2013-09-04 06:01:00,
2013-09-04 01:06:00,71.5,71.2,29.89,ESE,102,0.0,0.0,99,0.00,,---,0.00,VWS V14.01,2013-09-04 06:06:00,
2013-09-04 01:11:00,71.5,71.2,29.89,East,101,0.0,0.0,99,0.00,,---,0.00,VWS V14.01,2013-09-04 06:11:00,
2013-09-04 01:16:00,71.4,71.1,29.89,ESE,102,0.0,0.0,99,0.00,,---,0.00,VWS V14.01,2013-09-04 06:16:00,
2013-09-04 01:21:00,71.3,71.0,29.89,East,101,0.0,0.0,99,0.00,,---,0.00,VWS V14.01,2013-09-04 06:21:00,
2013-09-04 01:26:00,71.2,70.9,29.89,ESE,102,0.0,0.0,99,0.00,,---,0.00,VWS V14.01,2013-09-04 06:26:00,
2013-09-04 01:31:00,71.2,70.9,29.89,East,101,0.0,0.0,99,0.00,,---,0.00,VWS V14.01,2013-09-04 06:31:00,
2013-09-04 01:36:00,71.1,70.8,29.89,ESE,102,0.0,0.0,99,0.00,,---,0.00,VWS V14.01,2013-09-04 06:36:00,
2013-09-04 01:41:00,71.1,70.8,29.89,ESE,102,0.0,0.0,99,0.00,,---,0.00,VWS V14.01,2013-09-04 06:41:00,
2013-09-04 01:46:00,71.0,70.7,29.89,ESE,102,0.0,0.0,99,0.00,,---,0.00,VWS V14.01,2013-09-04 06:46:00,
2013-09-04 01:51:00,71.0,70.7,29.89,East,101,0.0,0.0,99,0.00,,---,0.00,VWS V14.01,2013-09-04 06:51:00,
2013-09-04 01:56:00,71.0,70.7,29.89,ESE,102,0.0,0.0,99,0.00,,---,0.00,VWS V14.01,2013-09-04 06:56:00,
2013-09-04 02:01:00,71.0,70.7,29.89,East,101,0.0,0.0,99,0.00,,---,0.00,VWS V14.01,2013-09-04 07:01:00,
2013-09-04 02:06:00,71.0,70.7,29.89,ESE,102,0.0,0.0,99,0.00,,---,0.00,VWS V14.01,2013-09-04 07:06:00,
2013-09-04 02:11:00,71.0,70.7,29.89,East,101,0.0,0.0,99,0.00,,---,0.00,VWS V14.01,2013-09-04 07:11:00,
2013-09-04 02:16:00,71.0,70.7,29.89,East,101,0.0,0.0,99,0.00,,---,0.00,VWS V14.01,2013-09-04 07:16:00,
2013-09-04 02:21:00,71.1,70.8,29.89,ESE,102,0.0,0.0,99,0.00,,---,0.00,VWS V14.01,2013-09-04 07:21:00,
2013-09-04 02:26:00,71.1,70.8,29.89,ESE,102,0.0,0.0,99,0.00,,---,0.00,VWS V14.01,2013-09-04 07:26:00,
2013-09-04 02:31:00,71.2,70.9,29.89,ESE,102,0.0,0.0,99,0.00,,---,0.00,VWS V14.01,2013-09-04 07:31:00,
2013-09-04 02:36:00,71.2,70.9,29.89,ESE,102,0.0,0.0,99,0.00,,---,0.00,VWS V14.01,2013-09-04 07:36:00,
2013-09-04 02:41:00,71.2,70.9,29.88,ESE,102,0.0,0.0,99,0.00,,---,0.00,VWS V14.01,2013-09-04 07:41:00,
2013-09-04 02:46:00,71.1,70.8,29.88,ESE,102,0.0,0.0,99,0.00,,---,0.00,VWS V14.01,2013-09-04 07:46:00,
2013-09-04 02:51:00,71.1,70.8,29.88,East,101,0.0,0.0,99,0.00,,---,0.00,VWS V14.01,2013-09-04 07:51:00,
2013-09-04 02:56:00,71.1,70.8,29.88,East,101,0.0,0.0,99,0.00,,---,0.00,VWS V14.01,2013-09-04 07:56:00,
2013-09-04 03:01:00,71.1,70.8,29.88,East,101,0.0,0.0,99,0.00,,---,0.00,VWS V14.01,2013-09-04 08:01:00,
2013-09-04 03:06:00,71.0,70.7,29.88,ESE,102,0.0,0.0,99,0.00,,---,0.00,VWS V14.01,2013-09-04 08:06:00,
2013-09-04 03:11:00,71.0,70.7,29.88,East,101,0.0,0.0,99,0.00,,---,0.00,VWS V14.01,2013-09-04 08:11:00,
2013-09-04 03:16:00,71.1,70.8,29.88,ESE,102,0.0,0.0,99,0.00,,---,0.00,VWS V14.01,2013-09-04 08:16:00,
2013-09-04 03:21:00,71.1,70.8,29.88,ESE,102,0.0,0.0,99,0.00,,---,0.00,VWS V14.01,2013-09-04 08:21:00,
2013-09-04 03:26:00,71.2,70.9,29.88,ESE,102,0.0,0.0,99,0.00,,---,0.00,VWS V14.01,2013-09-04 08:26:00,
2013-09-04 03:31:00,71.2,70.9,29.88,East,101,0.0,0.0,99,0.00,,---,0.00,VWS V14.01,2013-09-04 08:31:00,
2013-09-04 03:36:00,71.2,70.9,29.88,East,101,0.0,0.0,99,0.00,,---,0.00,VWS V14.01,2013-09-04 08:36:00,
2013-09-04 03:40:00,71.1,70.8,29.88,ESE,102,0.0,0.0,99,0.00,,---,0.00,VWS V14.01,2013-09-04 08:40:00,
2013-09-04 03:45:00,71.1,70.8,29.88,ESE,102,0.0,0.0,99,0.00,,---,0.00,VWS V14.01,2013-09-04 08:45:00,
2013-09-04 03:50:00,71.1,70.8,29.88,ESE,102,0.0,0.0,99,0.00,,---,0.00,VWS V14.01,2013-09-04 08:50:00,
2013-09-04 03:55:00,71.0,70.7,29.88,ESE,102,0.0,0.0,99,0.00,,---,0.00,VWS V14.01,2013-09-04 08:55:00,
2013-09-04 04:00:00,71.0,70.7,29.88,East,101,0.0,0.0,99,0.00,,---,0.00,VWS V14.01,2013-09-04 09:00:00,
2013-09-04 04:05:00,71.1,70.8,29.88,East,101,0.0,0.0,99,0.00,,---,0.00,VWS V14.01,2013-09-04 09:05:00,
2013-09-04 04:10:00,71.1,70.8,29.88,ESE,102,0.0,0.0,99,0.00,,---,0.00,VWS V14.01,2013-09-04 09:10:00,
2013-09-04 04:15:00,71.0,70.7,29.88,ESE,102,0.0,0.0,99,0.00,,---,0.00,VWS V14.01,2013-09-04 09:15:00,
2013-09-04 04:20:00,71.1,70.8,29.88,East,101,0.0,0.0,99,0.00,,---,0.00,VWS V14.01,2013-09-04 09:20:00,
2013-09-04 04:25:00,71.0,70.7,29.88,ESE,102,0.0,0.0,99,0.00,,---,0.00,VWS V14.01,2013-09-04 09:25:00,
2013-09-04 04:30:00,70.8,70.5,29.89,ESE,102,0.0,0.0,99,0.00,,---,0.00,VWS V14.01,2013-09-04 09:30:00,
2013-09-04 04:35:00,70.8,70.5,29.89,ESE,102,0.0,0.0,99,0.00,,---,0.00,VWS V14.01,2013-09-04 09:35:00,
2013-09-04 04:40:00,70.7,70.4,29.88,ESE,102,0.0,0.0,99,0.00,,---,0.00,VWS V14.01,2013-09-04 09:40:00,
2013-09-04 04:45:00,70.7,70.4,29.89,East,101,0.0,0.0,99,0.00,,---,0.00,VWS V14.01,2013-09-04 09:45:00,
2013-09-04 04:50:00,70.7,70.4,29.89,ESE,102,0.0,0.0,99,0.00,,---,0.00,VWS V14.01,2013-09-04 09:50:00,
2013-09-04 04:55:00,70.6,70.3,29.89,ESE,102,0.0,0.0,99,0.00,,---,0.00,VWS V14.01,2013-09-04 09:55:00,
2013-09-04 05:00:00,70.6,70.3,29.89,East,101,0.0,0.0,99,0.00,,---,0.00,VWS V14.01,2013-09-04 10:00:00,
2013-09-04 05:05:00,70.5,70.2,29.89,ESE,102,0.0,0.0,99,0.00,,---,0.00,VWS V14.01,2013-09-04 10:05:00,
2013-09-04 05:10:00,70.5,70.2,29.89,ESE,102,0.0,0.0,99,0.00,,---,0.00,VWS V14.01,2013-09-04 10:10:00,
2013-09-04 05:15:00,70.6,70.3,29.89,East,101,0.0,0.0,99,0.00,,---,0.00,VWS V14.01,2013-09-04 10:15:00,
2013-09-04 05:20:00,70.5,70.2,29.90,ESE,102,0.0,0.0,99,0.00,,---,0.00,VWS V14.01,2013-09-04 10:20:00,
2013-09-04 05:25:00,70.5,70.2,29.90,East,101,0.0,0.0,99,0.00,,---,0.00,VWS V14.01,2013-09-04 10:25:00,
2013-09-04 05:30:00,70.6,70.3,29.90,ESE,102,0.0,0.0,99,0.00,,---,0.00,VWS V14.01,2013-09-04 10:30:00,
2013-09-04 05:35:00,70.6,70.3,29.90,East,101,0.0,0.0,99,0.00,,---,0.00,VWS V14.01,2013-09-04 10:35:00,
2013-09-04 05:40:00,70.6,70.3,29.90,East,101,0.0,0.0,99,0.00,,---,0.00,VWS V14.01,2013-09-04 10:40:00,
2013-09-04 05:45:00,70.6,70.3,29.90,ESE,102,0.0,0.0,99,0.00,,---,0.00,VWS V14.01,2013-09-04 10:45:00,
2013-09-04 05:50:00,70.5,70.2,29.91,East,101,0.0,0.0,99,0.00,,---,0.00,VWS V14.01,2013-09-04 10:50:00,
2013-09-04 05:55:00,70.6,70.3,29.91,East,101,0.0,0.0,99,0.00,,---,0.00,VWS V14.01,2013-09-04 10:55:00,
2013-09-04 06:00:00,70.5,70.2,29.91,East,101,0.0,0.0,99,0.00,,---,0.00,VWS V14.01,2013-09-04 11:00:00,
2013-09-04 06:05:00,70.5,70.2,29.91,East,101,0.0,0.0,99,0.00,,---,0.00,VWS V14.01,2013-09-04 11:05:00,
2013-09-04 06:10:00,70.7,70.4,29.91,East,101,0.0,0.0,99,0.00,,---,0.00,VWS V14.01,2013-09-04 11:10:00,
2013-09-04 06:15:00,70.7,70.4,29.91,ESE,102,0.0,0.0,99,0.00,,---,0.00,VWS V14.01,2013-09-04 11:15:00,
2013-09-04 06:20:00,70.6,70.3,29.92,East,101,0.0,0.0,99,0.00,,---,0.00,VWS V14.01,2013-09-04 11:20:00,
2013-09-04 06:25:00,70.7,70.4,29.92,East,101,0.0,0.0,99,0.00,,---,0.00,VWS V14.01,2013-09-04 11:25:00,
2013-09-04 06:30:00,70.7,70.4,29.92,East,101,0.0,0.0,99,0.00,,---,0.00,VWS V14.01,2013-09-04 11:30:00,
2013-09-04 06:35:00,70.7,70.4,29.92,East,101,0.0,0.0,99,0.00,,---,0.00,VWS V14.01,2013-09-04 11:35:00,
2013-09-04 06:40:00,70.8,70.5,29.92,East,101,0.0,0.0,99,0.00,,---,0.00,VWS V14.01,2013-09-04 11:40:00,
2013-09-04 06:45:00,70.8,70.5,29.92,ESE,102,0.0,0.0,99,0.00,,---,0.00,VWS V14.01,2013-09-04 11:45:00,
2013-09-04 06:50:00,70.7,70.4,29.92,East,101,0.0,0.0,99,0.00,,---,0.00,VWS V14.01,2013-09-04 11:50:00,
2013-09-04 06:55:00,70.7,70.4,29.92,East,101,0.0,0.0,99,0.00,,---,0.00,VWS V14.01,2013-09-04 11:55:00,
2013-09-04 07:00:00,70.7,70.4,29.92,ESE,102,0.0,0.0,99,0.00,,---,0.00,VWS V14.01,2013-09-04 12:00:00,
2013-09-04 07:05:00,70.8,70.5,29.93,East,101,0.0,0.0,99,0.00,,---,0.00,VWS V14.01,2013-09-04 12:05:00,
2013-09-04 07:10:00,70.9,70.6,29.93,East,101,0.0,0.0,99,0.00,,---,0.00,VWS V14.01,2013-09-04 12:10:00,
2013-09-04 07:15:00,71.1,70.8,29.93,ESE,102,0.0,0.0,99,0.00,,---,0.00,VWS V14.01,2013-09-04 12:15:00,
2013-09-04 07:20:00,71.1,70.8,29.93,ESE,102,0.0,0.0,99,0.00,,---,0.00,VWS V14.01,2013-09-04 12:20:00,
2013-09-04 07:25:00,71.3,71.0,29.93,ESE,102,0.0,0.0,99,0.00,,---,0.00,VWS V14.01,2013-09-04 12:25:00,
2013-09-04 07:30:00,71.5,71.2,29.93,ESE,102,0.0,0.0,99,0.00,,---,0.00,VWS V14.01,2013-09-04 12:30:00,
2013-09-04 07:35:00,71.8,71.8,29.93,East,101,0.0,0.0,100,0.00,,---,0.00,VWS V14.01,2013-09-04 12:35:00,
2013-09-04 07:40:00,72.0,72.0,29.94,ESE,102,0.0,0.0,100,0.00,,---,0.00,VWS V14.01,2013-09-04 12:40:00,
2013-09-04 07:45:00,72.3,72.3,29.94,East,101,0.0,0.0,100,0.00,,---,0.00,VWS V14.01,2013-09-04 12:45:00,
2013-09-04 07:50:00,72.5,72.5,29.94,East,101,0.0,0.0,100,0.00,,---,0.00,VWS V14.01,2013-09-04 12:50:00,
2013-09-04 07:55:00,72.9,72.9,29.95,East,101,0.0,0.0,100,0.00,,---,0.00,VWS V14.01,2013-09-04 12:55:00,
2013-09-04 08:00:00,73.3,73.3,29.95,East,101,0.0,0.0,100,0.00,,---,0.00,VWS V14.01,2013-09-04 13:00:00,
2013-09-04 08:05:00,73.7,73.7,29.95,East,101,0.0,0.0,100,0.00,,---,0.00,VWS V14.01,2013-09-04 13:05:00,
2013-09-04 08:10:00,74.0,74.0,29.95,East,101,0.0,0.0,100,0.00,,---,0.00,VWS V14.01,2013-09-04 13:10:00,
2013-09-04 08:15:00,74.3,74.3,29.96,East,101,0.0,0.0,100,0.00,,---,0.00,VWS V14.01,2013-09-04 13:15:00,
2013-09-04 08:20:00,74.7,74.7,29.96,East,101,0.0,0.0,100,0.00,,---,0.00,VWS V14.01,2013-09-04 13:20:00,
2013-09-04 08:25:00,75.1,75.1,29.96,East,101,0.0,0.0,100,0.00,,---,0.00,VWS V14.01,2013-09-04 13:25:00,
2013-09-04 08:30:00,75.5,75.5,29.96,East,101,0.0,0.0,100,0.00,,---,0.00,VWS V14.01,2013-09-04 13:30:00,
2013-09-04 08:35:00,76.0,76.0,29.96,East,101,0.0,0.0,100,0.00,,---,0.00,VWS V14.01,2013-09-04 13:35:00,
2013-09-04 08:40:00,76.7,76.7,29.96,East,101,0.0,0.0,100,0.00,,---,0.00,VWS V14.01,2013-09-04 13:40:00,
2013-09-04 08:45:00,77.4,77.4,29.97,ESE,102,0.0,0.0,100,0.00,,---,0.00,VWS V14.01,2013-09-04 13:45:00,
2013-09-04 08:50:00,78.2,78.2,29.97,East,101,0.0,0.0,100,0.00,,---,0.00,VWS V14.01,2013-09-04 13:50:00,
2013-09-04 08:55:00,78.2,78.2,29.97,ESE,102,0.0,0.0,100,0.00,,---,0.00,VWS V14.01,2013-09-04 13:55:00,
2013-09-04 09:00:00,78.8,78.8,29.97,East,101,0.0,0.0,100,0.00,,---,0.00,VWS V14.01,2013-09-04 14:00:00,
2013-09-04 09:05:00,79.1,79.1,29.97,ESE,102,0.0,0.0,100,0.00,,---,0.00,VWS V14.01,2013-09-04 14:05:00,
2013-09-04 09:10:00,79.3,79.3,29.97,East,101,0.0,1.0,100,0.00,,---,0.00,VWS V14.01,2013-09-04 14:10:00,
2013-09-04 09:15:00,80.1,80.1,29.97,ESE,102,0.0,1.0,100,0.00,,---,0.00,VWS V14.01,2013-09-04 14:15:00,
2013-09-04 09:20:00,80.8,80.8,29.97,East,101,1.0,1.0,100,0.00,,---,0.00,VWS V14.01,2013-09-04 14:20:00,
2013-09-04 09:25:00,81.2,80.9,29.97,ESE,102,0.0,1.0,99,0.00,,---,0.00,VWS V14.01,2013-09-04 14:25:00,
2013-09-04 09:30:00,81.9,81.6,29.97,East,101,0.0,1.0,99,0.00,,---,0.00,VWS V14.01,2013-09-04 14:30:00,
2013-09-04 09:35:00,82.9,82.3,29.97,East,101,0.0,0.0,98,0.00,,---,0.00,VWS V14.01,2013-09-04 14:35:00,
2013-09-04 09:40:00,83.7,82.8,29.97,ESE,102,0.0,0.0,97,0.00,,---,0.00,VWS V14.01,2013-09-04 14:40:00,
2013-09-04 09:45:00,84.0,82.4,29.98,East,101,0.0,0.0,95,0.00,,---,0.00,VWS V14.01,2013-09-04 14:45:00,
2013-09-04 09:50:00,84.4,81.8,29.98,NW,321,1.0,2.0,92,0.00,,---,0.00,VWS V14.01,2013-09-04 14:50:00,
2013-09-04 09:55:00,84.9,82.7,29.98,NW,321,0.0,2.0,93,0.00,,---,0.00,VWS V14.01,2013-09-04 14:55:00,
2013-09-04 10:00:00,85.5,82.9,29.98,NW,321,0.0,2.0,92,0.00,,---,0.00,VWS V14.01,2013-09-04 15:00:00,
2013-09-04 10:05:00,85.4,81.4,29.98,NW,321,0.0,0.0,88,0.00,,---,0.00,VWS V14.01,2013-09-04 15:05:00,
2013-09-04 10:10:00,86.1,82.8,29.98,NW,321,0.0,0.0,90,0.00,,---,0.00,VWS V14.01,2013-09-04 15:10:00,
2013-09-04 10:15:00,86.9,82.6,29.98,NW,321,0.0,0.0,87,0.00,,---,0.00,VWS V14.01,2013-09-04 15:15:00,
2013-09-04 10:20:00,87.0,81.9,29.98,NW,321,0.0,0.0,85,0.00,,---,0.00,VWS V14.01,2013-09-04 15:20:00,
2013-09-04 10:25:00,87.3,82.6,29.98,NW,319,0.0,0.0,86,0.00,,---,0.00,VWS V14.01,2013-09-04 15:25:00,
2013-09-04 10:29:00,87.5,83.2,29.98,North,359,0.0,0.0,87,0.00,,---,0.00,VWS V14.01,2013-09-04 15:29:00,
2013-09-04 10:34:00,87.2,81.4,29.98,SW,236,0.0,0.0,83,0.00,,---,0.00,VWS V14.01,2013-09-04 15:34:00,
2013-09-04 10:39:00,87.1,81.7,29.98,SW,236,0.0,0.0,84,0.00,,---,0.00,VWS V14.01,2013-09-04 15:39:00,
2013-09-04 10:44:00,87.4,81.2,29.98,SW,236,0.0,0.0,82,0.00,,---,0.00,VWS V14.01,2013-09-04 15:44:00,
2013-09-04 10:49:00,88.5,82.7,29.98,SW,236,0.0,0.0,83,0.00,,---,0.00,VWS V14.01,2013-09-04 15:49:00,
2013-09-04 10:54:00,88.3,82.5,29.98,SW,236,0.0,0.0,83,0.00,,---,0.00,VWS V14.01,2013-09-04 15:54:00,
2013-09-04 10:59:00,88.2,81.6,29.98,SW,236,0.0,0.0,81,0.00,,---,0.00,VWS V14.01,2013-09-04 15:59:00,
2013-09-04 11:04:00,87.8,81.6,29.98,SW,236,0.0,0.0,82,0.00,,---,0.00,VWS V14.01,2013-09-04 16:04:00,
2013-09-04 11:09:00,87.3,82.6,29.98,SW,236,0.0,0.0,86,0.00,,---,0.00,VWS V14.01,2013-09-04 16:09:00,
2013-09-04 11:14:00,87.2,82.9,29.98,SW,236,0.0,0.0,87,0.00,,---,0.00,VWS V14.01,2013-09-04 16:14:00,
2013-09-04 11:19:00,87.2,81.8,29.98,WSW,243,0.0,1.0,84,0.00,,---,0.00,VWS V14.01,2013-09-04 16:19:00,
2013-09-04 11:24:00,88.0,82.6,29.98,ESE,109,0.0,1.0,84,0.00,,---,0.00,VWS V14.01,2013-09-04 16:24:00,
2013-09-04 12:30:00,88.5,81.5,29.96,SE,133,0.0,2.0,80,0.00,,---,0.00,VWS V14.01,2013-09-04 17:30:00,
2013-09-04 12:50:00,90.3,80.5,29.96,SE,136,0.0,2.0,73,0.00,,---,0.00,VWS V14.01,2013-09-04 17:50:00,
2013-09-04 12:55:00,90.9,82.3,29.95,SE,136,1.0,2.0,76,0.00,,---,0.00,VWS V14.01,2013-09-04 17:55:00,
2013-09-04 13:00:00,91.0,79.9,29.95,SE,135,0.0,2.0,70,0.00,,---,0.00,VWS V14.01,2013-09-04 18:00:00,
2013-09-04 13:05:00,91.4,80.7,29.95,SW,235,0.0,0.0,71,0.00,,---,0.00,VWS V14.01,2013-09-04 18:05:00,
2013-09-04 13:10:00,92.1,81.8,29.95,South,191,1.0,2.0,72,0.00,,---,0.00,VWS V14.01,2013-09-04 18:10:00,
2013-09-04 13:15:00,92.4,81.6,29.95,SSW,200,0.0,2.0,71,0.00,,---,0.00,VWS V14.01,2013-09-04 18:15:00,
2013-09-04 13:20:00,92.8,82.0,29.95,SW,214,0.0,2.0,71,0.00,,---,0.00,VWS V14.01,2013-09-04 18:20:00,
2013-09-04 13:25:00,92.6,81.4,29.94,SE,134,2.0,2.0,70,0.00,,---,0.00,VWS V14.01,2013-09-04 18:25:00,
2013-09-04 13:30:00,91.9,81.2,29.94,ESE,122,0.0,2.0,71,0.00,,---,0.00,VWS V14.01,2013-09-04 18:30:00,
2013-09-04 13:35:00,91.8,81.5,29.94,SE,139,2.0,2.0,72,0.00,,---,0.00,VWS V14.01,2013-09-04 18:35:00,
2013-09-04 13:40:00,91.2,81.8,29.94,SE,141,2.0,3.0,74,0.00,,---,0.00,VWS V14.01,2013-09-04 18:40:00,
2013-09-04 13:45:00,90.3,80.5,29.94,SE,136,1.0,3.0,73,0.00,,---,0.00,VWS V14.01,2013-09-04 18:45:00,
2013-09-04 13:50:00,89.7,80.7,29.94,SSW,200,1.0,3.0,75,0.00,,---,0.00,VWS V14.01,2013-09-04 18:50:00,
2013-09-04 13:55:00,89.6,80.2,29.94,SSW,207,0.0,3.0,74,0.00,,---,0.00,VWS V14.01,2013-09-04 18:55:00,
2013-09-04 14:00:00,89.7,80.3,29.94,SE,139,0.0,3.0,74,0.00,,---,0.00,VWS V14.01,2013-09-04 19:00:00,
2013-09-04 14:05:00,90.1,81.5,29.94,SSW,210,1.0,1.0,76,0.00,,---,0.00,VWS V14.01,2013-09-04 19:05:00,
2013-09-04 14:10:00,90.1,80.7,29.94,SE,143,0.0,1.0,74,0.00,,---,0.00,VWS V14.01,2013-09-04 19:10:00,
2013-09-04 14:15:00,89.7,80.3,29.94,SE,142,0.0,1.0,74,0.00,,---,0.00,VWS V14.01,2013-09-04 19:15:00,
2013-09-04 14:20:00,89.8,80.0,29.94,SE,146,1.0,1.0,73,0.00,,---,0.00,VWS V14.01,2013-09-04 19:20:00,
2013-09-04 14:25:00,90.3,81.7,29.93,SE,146,0.0,1.0,76,0.00,,---,0.00,VWS V14.01,2013-09-04 19:25:00,
2013-09-04 14:30:00,90.0,79.8,29.93,SW,224,0.0,1.0,72,0.00,,---,0.00,VWS V14.01,2013-09-04 19:30:00,
2013-09-04 14:35:00,89.3,79.5,29.93,SW,224,0.0,0.0,73,0.00,,---,0.00,VWS V14.01,2013-09-04 19:35:00,
2013-09-04 14:40:00,88.6,80.1,29.93,SW,224,0.0,0.0,76,0.00,,---,0.00,VWS V14.01,2013-09-04 19:40:00,
2013-09-04 14:45:00,87.2,80.7,29.94,SW,224,0.0,0.0,81,0.00,,---,0.00,VWS V14.01,2013-09-04 19:45:00,
2013-09-04 14:50:00,85.8,79.3,29.94,SSW,212,0.0,0.0,81,0.00,,---,0.00,VWS V14.01,2013-09-04 19:50:00,
2013-09-04 14:55:00,84.7,78.2,29.93,SE,141,0.0,1.0,81,0.00,,---,0.00,VWS V14.01,2013-09-04 19:55:00,
2013-09-04 15:00:00,83.8,78.4,29.93,SE,141,0.0,1.0,84,0.00,,---,0.00,VWS V14.01,2013-09-04 20:00:00,
2013-09-04 15:05:00,83.0,77.7,29.93,SE,141,0.0,0.0,84,0.00,,---,0.00,VWS V14.01,2013-09-04 20:05:00,
2013-09-04 15:10:00,82.4,77.8,29.92,SE,141,0.0,0.0,86,0.00,,---,0.00,VWS V14.01,2013-09-04 20:10:00,
2013-09-04 15:15:00,82.1,77.8,29.93,SE,141,0.0,0.0,87,0.00,,---,0.00,VWS V14.01,2013-09-04 20:15:00,
2013-09-04 15:20:00,81.9,77.7,29.92,SE,141,0.0,0.0,87,0.00,,---,0.00,VWS V14.01,2013-09-04 20:20:00,
2013-09-04 15:25:00,82.0,77.8,29.92,SE,141,0.0,0.0,87,0.00,,---,0.00,VWS V14.01,2013-09-04 20:25:00,
2013-09-04 15:30:00,82.2,78.3,29.93,SE,141,0.0,0.0,88,0.00,,---,0.00,VWS V14.01,2013-09-04 20:30:00,
2013-09-04 15:35:00,82.3,78.4,29.92,SE,141,0.0,0.0,88,0.00,,---,0.00,VWS V14.01,2013-09-04 20:35:00,
2013-09-04 15:39:00,82.3,78.1,29.92,SE,141,0.0,0.0,87,0.00,,---,0.00,VWS V14.01,2013-09-04 20:39:00,
2013-09-04 15:44:00,82.5,78.9,29.92,SE,141,0.0,0.0,89,0.00,,---,0.00,VWS V14.01,2013-09-04 20:44:00,
2013-09-04 15:49:00,82.6,79.4,29.92,SE,141,0.0,0.0,90,0.00,,---,0.00,VWS V14.01,2013-09-04 20:49:00,
2013-09-04 15:54:00,82.4,78.5,29.92,SE,141,0.0,0.0,88,0.00,,---,0.00,VWS V14.01,2013-09-04 20:54:00,
2013-09-04 15:59:00,82.4,79.2,29.92,SE,141,0.0,0.0,90,0.00,,---,0.00,VWS V14.01,2013-09-04 20:59:00,
2013-09-04 16:04:00,82.3,79.1,29.92,SE,141,0.0,0.0,90,0.00,,---,0.00,VWS V14.01,2013-09-04 21:04:00,
2013-09-04 16:09:00,82.1,79.6,29.93,SE,141,0.0,0.0,92,0.00,,---,0.00,VWS V14.01,2013-09-04 21:09:00,
2013-09-04 16:14:00,81.9,79.3,29.93,SE,141,0.0,0.0,92,0.00,,---,0.00,VWS V14.01,2013-09-04 21:14:00,
2013-09-04 16:19:00,81.7,79.5,29.92,SE,141,0.0,0.0,93,0.00,,---,0.00,VWS V14.01,2013-09-04 21:19:00,
2013-09-04 16:24:00,81.5,79.3,29.92,SE,141,0.0,0.0,93,0.00,,---,0.00,VWS V14.01,2013-09-04 21:24:00,
2013-09-04 16:29:00,81.4,79.2,29.92,SE,141,0.0,0.0,93,0.00,,---,0.00,VWS V14.01,2013-09-04 21:29:00,
2013-09-04 16:34:00,81.4,79.5,29.92,SE,141,0.0,0.0,94,0.00,,---,0.00,VWS V14.01,2013-09-04 21:34:00,
2013-09-04 16:39:00,81.3,79.4,29.92,SE,141,0.0,0.0,94,0.00,,---,0.00,VWS V14.01,2013-09-04 21:39:00,
2013-09-04 16:44:00,81.1,79.2,29.93,SE,141,0.0,0.0,94,0.00,,---,0.00,VWS V14.01,2013-09-04 21:44:00,
2013-09-04 16:49:00,81.0,79.1,29.93,SE,141,0.0,0.0,94,0.00,,---,0.00,VWS V14.01,2013-09-04 21:49:00,
2013-09-04 16:54:00,80.8,78.9,29.93,SE,141,0.0,0.0,94,0.00,,---,0.00,VWS V14.01,2013-09-04 21:54:00,
2013-09-04 16:59:00,80.7,79.1,29.93,SE,141,0.0,0.0,95,0.00,,---,0.00,VWS V14.01,2013-09-04 21:59:00,
2013-09-04 17:04:00,80.7,79.1,29.93,SE,141,0.0,0.0,95,0.00,,---,0.00,VWS V14.01,2013-09-04 22:04:00,
2013-09-04 17:09:00,80.6,79.0,29.93,SE,141,0.0,0.0,95,0.00,,---,0.00,VWS V14.01,2013-09-04 22:09:00,
2013-09-04 17:14:00,80.5,78.9,29.93,SE,141,0.0,0.0,95,0.00,,---,0.00,VWS V14.01,2013-09-04 22:14:00,
2013-09-04 17:19:00,80.5,78.9,29.93,SE,141,0.0,0.0,95,0.00,,---,0.00,VWS V14.01,2013-09-04 22:19:00,
2013-09-04 17:24:00,80.4,78.8,29.93,SE,141,0.0,0.0,95,0.00,,---,0.00,VWS V14.01,2013-09-04 22:24:00,
2013-09-04 17:29:00,80.3,78.7,29.93,SE,141,0.0,0.0,95,0.00,,---,0.00,VWS V14.01,2013-09-04 22:29:00,
2013-09-04 17:34:00,80.3,79.1,29.93,SE,141,0.0,0.0,96,0.00,,---,0.00,VWS V14.01,2013-09-04 22:34:00,
2013-09-04 17:39:00,80.3,79.1,29.93,SE,141,0.0,0.0,96,0.00,,---,0.00,VWS V14.01,2013-09-04 22:39:00,
2013-09-04 17:44:00,80.3,79.1,29.93,SE,141,0.0,0.0,96,0.00,,---,0.00,VWS V14.01,2013-09-04 22:44:00,
2013-09-04 17:49:00,80.2,79.0,29.93,SE,141,0.0,0.0,96,0.00,,---,0.00,VWS V14.01,2013-09-04 22:49:00,
2013-09-04 17:54:00,80.2,79.0,29.93,SE,141,0.0,0.0,96,0.00,,---,0.00,VWS V14.01,2013-09-04 22:54:00,
2013-09-04 17:59:00,80.2,79.0,29.93,SE,141,0.0,0.0,96,0.00,,---,0.00,VWS V14.01,2013-09-04 22:59:00,
2013-09-04 18:04:00,80.1,78.9,29.93,SE,141,0.0,0.0,96,0.00,,---,0.00,VWS V14.01,2013-09-04 23:04:00,
2013-09-04 18:09:00,80.1,78.9,29.93,SE,141,0.0,0.0,96,0.00,,---,0.00,VWS V14.01,2013-09-04 23:09:00,
2013-09-04 18:14:00,80.1,78.9,29.93,SE,141,0.0,0.0,96,0.00,,---,0.00,VWS V14.01,2013-09-04 23:14:00,
2013-09-04 18:19:00,80.0,78.8,29.93,SE,141,0.0,0.0,96,0.00,,---,0.00,VWS V14.01,2013-09-04 23:19:00,
2013-09-04 18:24:00,79.9,78.7,29.93,SE,141,0.0,0.0,96,0.00,,---,0.00,VWS V14.01,2013-09-04 23:24:00,
2013-09-04 18:29:00,79.9,78.7,29.93,SE,141,0.0,0.0,96,0.00,,---,0.00,VWS V14.01,2013-09-04 23:29:00,
2013-09-04 18:34:00,79.8,78.6,29.93,SE,141,0.0,0.0,96,0.00,,---,0.00,VWS V14.01,2013-09-04 23:34:00,
2013-09-04 18:39:00,79.7,78.5,29.93,SE,141,0.0,0.0,96,0.00,,---,0.00,VWS V14.01,2013-09-04 23:39:00,
2013-09-04 18:44:00,79.7,78.8,29.93,SE,141,0.0,0.0,97,0.00,,---,0.00,VWS V14.01,2013-09-04 23:44:00,
2013-09-04 18:49:00,79.6,78.7,29.94,SE,141,0.0,0.0,97,0.00,,---,0.00,VWS V14.01,2013-09-04 23:49:00,
2013-09-04 18:54:00,79.5,78.6,29.94,SE,141,0.0,0.0,97,0.00,,---,0.00,VWS V14.01,2013-09-04 23:54:00,
2013-09-04 18:59:00,79.4,78.5,29.94,SE,141,0.0,0.0,97,0.00,,---,0.00,VWS V14.01,2013-09-04 23:59:00,
2013-09-04 19:04:00,79.3,78.4,29.94,SE,141,0.0,0.0,97,0.00,,---,0.00,VWS V14.01,2013-09-05 00:04:00,
2013-09-04 19:09:00,79.2,78.3,29.94,SE,141,0.0,0.0,97,0.00,,---,0.00,VWS V14.01,2013-09-05 00:09:00,
2013-09-04 19:14:00,79.1,78.2,29.94,SE,141,0.0,0.0,97,0.00,,---,0.00,VWS V14.01,2013-09-05 00:14:00,
2013-09-04 19:19:00,79.0,78.1,29.94,SE,141,0.0,0.0,97,0.00,,---,0.00,VWS V14.01,2013-09-05 00:19:00,
2013-09-04 19:24:00,78.9,78.0,29.94,SE,141,0.0,0.0,97,0.00,,---,0.00,VWS V14.01,2013-09-05 00:24:00,
2013-09-04 19:29:00,78.7,77.8,29.94,SE,141,0.0,0.0,97,0.00,,---,0.00,VWS V14.01,2013-09-05 00:29:00,
2013-09-04 19:34:00,78.6,77.7,29.94,SE,141,0.0,0.0,97,0.00,,---,0.00,VWS V14.01,2013-09-05 00:34:00,
2013-09-04 19:39:00,78.4,77.5,29.94,SE,141,0.0,0.0,97,0.00,,---,0.00,VWS V14.01,2013-09-05 00:39:00,
2013-09-04 19:44:00,78.3,77.4,29.94,SE,141,0.0,0.0,97,0.00,,---,0.00,VWS V14.01,2013-09-05 00:44:00,
2013-09-04 19:49:00,78.1,77.2,29.95,SE,141,0.0,0.0,97,0.00,,---,0.00,VWS V14.01,2013-09-05 00:49:00,
2013-09-04 19:54:00,78.0,77.1,29.95,SE,141,0.0,0.0,97,0.00,,---,0.00,VWS V14.01,2013-09-05 00:54:00,
2013-09-04 19:59:00,78.0,77.1,29.95,SE,141,0.0,0.0,97,0.00,,---,0.00,VWS V14.01,2013-09-05 00:59:00,
2013-09-04 20:04:00,78.0,77.1,29.95,SE,141,0.0,0.0,97,0.00,,---,0.00,VWS V14.01,2013-09-05 01:04:00,
2013-09-04 20:09:00,77.9,77.0,29.95,SE,141,0.0,0.0,97,0.00,,---,0.00,VWS V14.01,2013-09-05 01:09:00,
2013-09-04 20:14:00,77.7,76.8,29.94,SE,141,0.0,0.0,97,0.00,,---,0.00,VWS V14.01,2013-09-05 01:14:00,
2013-09-04 20:19:00,77.6,77.0,29.95,SE,141,0.0,0.0,98,0.00,,---,0.00,VWS V14.01,2013-09-05 01:19:00,
2013-09-04 20:24:00,77.5,76.6,29.95,SE,141,0.0,0.0,97,0.00,,---,0.00,VWS V14.01,2013-09-05 01:24:00,
2013-09-04 20:29:00,77.4,76.8,29.95,SE,141,0.0,0.0,98,0.00,,---,0.00,VWS V14.01,2013-09-05 01:29:00,
2013-09-04 20:34:00,77.2,76.6,29.95,SE,141,0.0,0.0,98,0.00,,---,0.00,VWS V14.01,2013-09-05 01:34:00,
2013-09-04 20:39:00,77.1,76.5,29.95,SE,141,0.0,0.0,98,0.00,,---,0.00,VWS V14.01,2013-09-05 01:39:00,
2013-09-04 20:44:00,77.0,76.4,29.96,SE,141,0.0,0.0,98,0.00,,---,0.00,VWS V14.01,2013-09-05 01:44:00,
2013-09-04 20:49:00,76.9,76.3,29.96,SE,141,0.0,0.0,98,0.00,,---,0.00,VWS V14.01,2013-09-05 01:49:00,
2013-09-04 20:54:00,76.8,76.2,29.97,SE,141,0.0,0.0,98,0.00,,---,0.00,VWS V14.01,2013-09-05 01:54:00,
2013-09-04 20:59:00,76.8,76.2,29.97,SE,141,0.0,0.0,98,0.00,,---,0.00,VWS V14.01,2013-09-05 01:59:00,
2013-09-04 21:04:00,76.7,76.1,29.97,SE,141,0.0,0.0,98,0.00,,---,0.00,VWS V14.01,2013-09-05 02:04:00,
2013-09-04 21:09:00,76.7,76.1,29.98,SE,141,0.0,0.0,98,0.00,,---,0.00,VWS V14.01,2013-09-05 02:09:00,
2013-09-04 21:13:00,76.6,76.0,29.98,SE,141,0.0,0.0,98,0.00,,---,0.00,VWS V14.01,2013-09-05 02:13:00,
2013-09-04 21:18:00,76.6,76.0,29.98,SE,141,0.0,0.0,98,0.00,,---,0.00,VWS V14.01,2013-09-05 02:18:00,
2013-09-04 21:23:00,76.6,76.0,29.98,SE,141,0.0,0.0,98,0.00,,---,0.00,VWS V14.01,2013-09-05 02:23:00,
2013-09-04 21:28:00,76.6,76.0,29.98,SE,141,0.0,0.0,98,0.00,,---,0.00,VWS V14.01,2013-09-05 02:28:00,
2013-09-04 21:33:00,76.6,76.0,29.98,SE,141,0.0,0.0,98,0.00,,---,0.00,VWS V14.01,2013-09-05 02:33:00,
2013-09-04 21:38:00,76.6,76.0,29.98,SE,141,0.0,0.0,98,0.00,,---,0.00,VWS V14.01,2013-09-05 02:38:00,
2013-09-04 21:43:00,76.6,76.0,29.98,SE,141,0.0,0.0,98,0.00,,---,0.00,VWS V14.01,2013-09-05 02:43:00,
2013-09-04 21:48:00,76.5,75.9,29.98,SE,141,0.0,0.0,98,0.00,,---,0.00,VWS V14.01,2013-09-05 02:48:00,
2013-09-04 21:53:00,76.5,75.9,29.98,SE,141,0.0,0.0,98,0.00,,---,0.00,VWS V14.01,2013-09-05 02:53:00,
2013-09-04 21:58:00,76.4,75.8,29.98,SE,141,0.0,0.0,98,0.00,,---,0.00,VWS V14.01,2013-09-05 02:58:00,
2013-09-04 22:03:00,76.4,75.8,29.98,SE,141,0.0,0.0,98,0.00,,---,0.00,VWS V14.01,2013-09-05 03:03:00,
2013-09-04 22:08:00,76.2,75.6,29.98,SE,141,0.0,0.0,98,0.00,,---,0.00,VWS V14.01,2013-09-05 03:08:00,
2013-09-04 22:13:00,76.1,75.5,29.97,SE,141,0.0,0.0,98,0.00,,---,0.00,VWS V14.01,2013-09-05 03:13:00,
2013-09-04 22:18:00,76.0,75.4,29.97,SE,141,0.0,0.0,98,0.00,,---,0.00,VWS V14.01,2013-09-05 03:18:00,
2013-09-04 22:23:00,75.8,75.2,29.97,SE,141,0.0,0.0,98,0.00,,---,0.00,VWS V14.01,2013-09-05 03:23:00,
2013-09-04 22:28:00,75.8,75.2,29.98,SE,141,0.0,0.0,98,0.00,,---,0.00,VWS V14.01,2013-09-05 03:28:00,
2013-09-04 22:33:00,75.7,75.1,29.98,SE,141,0.0,0.0,98,0.00,,---,0.00,VWS V14.01,2013-09-05 03:33:00,
2013-09-04 22:38:00,75.6,75.0,29.98,SE,141,0.0,0.0,98,0.00,,---,0.00,VWS V14.01,2013-09-05 03:38:00,
2013-09-04 22:43:00,75.5,74.9,29.98,SE,141,0.0,0.0,98,0.00,,---,0.00,VWS V14.01,2013-09-05 03:43:00,
2013-09-04 22:48:00,75.5,74.9,29.98,SE,141,0.0,0.0,98,0.00,,---,0.00,VWS V14.01,2013-09-05 03:48:00,
2013-09-04 22:53:00,75.4,74.8,29.98,SE,141,0.0,0.0,98,0.00,,---,0.00,VWS V14.01,2013-09-05 03:53:00,
2013-09-04 22:58:00,75.5,74.9,29.98,SE,141,0.0,0.0,98,0.00,,---,0.00,VWS V14.01,2013-09-05 03:58:00,
2013-09-04 23:01:00,75.5,74.9,29.98,SE,141,0.0,0.0,98,0.00,,---,0.00,VWS V14.01,2013-09-05 04:01:00,
2013-09-04 23:06:00,75.5,74.9,29.98,SE,141,0.0,0.0,98,0.00,,---,0.00,VWS V14.01,2013-09-05 04:06:00,
2013-09-04 23:11:00,75.4,74.8,29.98,SE,141,0.0,0.0,98,0.00,,---,0.00,VWS V14.01,2013-09-05 04:11:00,
2013-09-04 23:16:00,75.5,75.2,29.97,SE,141,0.0,0.0,99,0.00,,---,0.00,VWS V14.01,2013-09-05 04:16:00,
2013-09-04 23:21:00,75.6,75.3,29.97,SE,141,0.0,0.0,99,0.00,,---,0.00,VWS V14.01,2013-09-05 04:21:00,
2013-09-04 23:26:00,75.6,75.3,29.97,SE,141,0.0,0.0,99,0.00,,---,0.00,VWS V14.01,2013-09-05 04:26:00,
2013-09-04 23:31:00,75.5,75.2,29.98,SE,141,0.0,0.0,99,0.00,,---,0.00,VWS V14.01,2013-09-05 04:31:00,
2013-09-04 23:36:00,75.4,75.1,29.98,SE,141,0.0,0.0,99,0.00,,---,0.00,VWS V14.01,2013-09-05 04:36:00,
2013-09-04 23:41:00,75.4,75.1,29.97,SE,141,0.0,0.0,99,0.00,,---,0.00,VWS V14.01,2013-09-05 04:41:00,
2013-09-04 23:46:00,75.4,75.1,29.97,SE,141,0.0,0.0,99,0.00,,---,0.00,VWS V14.01,2013-09-05 04:46:00,
2013-09-04 23:51:00,75.3,75.0,29.97,SE,141,0.0,0.0,99,0.00,,---,0.00,VWS V14.01,2013-09-05 04:51:00,
2013-09-04 23:56:00,75.3,75.0,29.97,SE,141,0.0,0.0,99,0.00,,---,0.00,VWS V14.01,2013-09-05 04:56:00,